Date,TemperatureHighF,TemperatureAvgF,TemperatureLowF,DewpointHighF,DewpointAvgF,DewpointLowF,HumidityHigh,HumidityAvg,HumidityLow,PressureMaxIn,PressureMinIn,WindSpeedMaxMPH,WindSpeedAvgMPH,GustSpeedMaxMPH,PrecipitationSumIn
2013-1-1,31.8,28.7,26.2,25.3,16.4,13.1,77,60,51,29.91,29.67,15,7,15,0.00
2013-1-2,45.3,30.4,19.4,18.7,14.9,10.4,77,54,30,29.93,29.79,16,5,16,0.00
2013-1-3,45.1,29.9,21.4,20.1,14.4,10.3,78,55,29,30.08,29.93,11,4,11,0.00
2013-1-4,43.7,34.0,21.0,25.2,17.1,11.8,75,52,32,30.05,29.88,17,4,17,0.00
2013-1-5,52.5,39.9,28.8,22.4,18.6,11.8,56,43,26,29.93,29.76,18,7,18,0.00
2013-1-6,56.7,37.3,25.7,21.4,15.2,8.1,64,43,20,30.05,29.91,9,3,9,0.00
2013-1-7,50.2,34.8,19.4,23.0,14.6,7.8,68,45,26,29.91,29.67,17,4,17,0.00
2013-1-8,53.6,43.0,30.9,45.2,29.6,17.3,96,61,31,29.76,29.58,17,5,17,0.00
2013-1-9,46.6,43.5,40.1,46.6,42.3,36.1,100,95,74,29.91,29.67,24,10,24,0.35
2013-1-10,55.9,48.3,43.0,55.9,48.3,43.0,100,100,100,29.67,29.40,18,6,18,0.55
2013-1-11,66.9,54.9,42.3,48.1,44.1,30.6,100,70,45,29.43,29.26,31,9,31,0.00
2013-1-12,50.9,35.0,25.5,32.5,22.5,14.1,80,60,48,29.67,29.43,26,11,26,0.00
2013-1-13,33.4,25.2,18.5,16.1,12.3,9.4,80,58,45,29.93,29.67,19,8,19,0.00
2013-1-14,38.1,25.8,15.6,16.2,13.3,10.8,84,61,36,29.99,29.85,18,7,18,0.00
2013-1-15,37.2,26.9,18.3,19.1,16.2,11.4,93,65,45,29.88,29.79,15,5,15,0.00
2013-1-16,51.1,31.0,16.2,28.3,21.4,12.8,98,72,36,29.85,29.70,14,4,14,0.00
2013-1-17,57.9,40.3,27.7,34.0,29.1,24.9,100,68,38,30.11,29.85,16,5,16,0.00
2013-1-18,60.8,41.7,24.4,37.3,29.5,24.4,100,68,36,30.08,29.76,25,5,25,0.00
2013-1-19,64.8,48.4,30.6,36.7,31.9,26.8,100,56,34,29.82,29.70,15,4,15,0.00
2013-1-20,65.8,44.0,25.3,38.9,31.1,22.6,100,66,34,29.85,29.67,26,5,26,0.00
2013-1-21,47.1,32.5,22.3,23.3,15.3,8.7,80,50,33,30.02,29.85,21,7,21,0.00
2013-1-22,60.4,38.5,19.2,33.4,25.6,16.2,92,64,36,29.85,29.73,18,4,18,0.00
2013-1-23,70.5,44.8,27.0,51.8,37.9,27.0,100,82,38,29.82,29.67,13,2,13,0.00
2013-1-24,46.2,37.4,31.8,46.2,29.5,23.3,100,74,58,29.85,29.70,17,8,17,0.00
2013-1-25,53.1,36.4,24.4,30.7,27.0,22.6,100,72,40,29.85,29.73,15,5,15,0.00
2013-1-26,55.0,39.6,23.2,46.0,34.1,23.2,100,84,46,29.85,29.61,17,5,17,0.00
2013-1-27,73.9,59.7,45.5,61.0,52.6,45.5,100,80,48,29.61,29.37,26,12,26,0.00
2013-1-28,76.1,66.2,54.1,65.1,58.4,50.2,100,77,48,29.52,29.31,28,11,28,0.00
2013-1-29,68.0,57.6,38.7,66.0,49.0,33.4,100,77,34,29.31,29.11,35,10,35,0.43
2013-1-30,47.8,38.7,29.8,37.2,26.2,18.6,94,63,36,29.67,29.28,25,11,25,0.00
2013-1-31,62.1,37.2,21.9,34.8,25.0,16.6,100,65,36,29.99,29.64,28,8,28,0.00
2013-2-1,50.0,32.8,17.6,30.3,20.8,13.8,92,64,40,29.99,29.73,21,5,21,0.00
2013-2-2,63.0,41.5,25.5,39.0,31.1,24.9,100,72,32,29.93,29.73,16,4,16,0.00
2013-2-3,63.7,46.1,26.4,38.5,31.2,25.8,100,62,27,29.93,29.49,17,5,17,0.00
2013-2-4,65.7,54.4,34.7,43.0,35.1,28.0,87,50,30,29.55,29.40,19,8,19,0.00
2013-2-5,69.6,46.9,25.5,51.8,36.1,25.5,100,74,26,29.64,29.52,11,3,11,0.00
2013-2-6,66.6,55.8,48.4,62.1,54.8,48.4,100,97,75,29.64,29.40,24,8,24,0.00
2013-2-7,62.8,53.6,36.1,61.3,48.4,33.1,100,84,48,29.82,29.37,38,10,38,0.00
2013-2-8,58.3,41.1,23.4,39.5,28.6,22.5,100,68,28,29.91,29.70,15,4,15,0.00
2013-2-9,52.2,44.2,35.2,52.0,43.0,30.1,100,96,80,29.70,29.26,26,11,26,0.00
2013-2-10,61.9,48.8,37.0,53.4,31.0,23.8,100,52,28,29.64,29.26,23,8,23,0.04
2013-2-11,55.0,41.5,28.2,29.3,25.5,22.1,81,55,34,29.82,29.64,20,6,20,0.00
2013-2-12,41.0,35.3,30.6,36.3,32.3,26.2,100,90,58,29.67,29.55,24,7,24,0.75
2013-2-13,52.0,35.4,24.4,34.9,29.8,24.4,100,83,42,29.70,29.58,11,2,11,0.08
2013-2-14,60.4,42.2,25.0,39.8,33.5,25.0,100,75,42,29.85,29.61,29,7,29,0.00
2013-2-15,44.8,37.0,31.1,37.7,24.8,18.2,100,63,44,30.02,29.85,18,7,18,0.00
2013-2-16,53.8,37.6,22.8,34.5,29.5,22.8,100,76,42,29.99,29.67,22,5,22,0.00
2013-2-17,71.2,51.0,26.6,39.7,28.9,22.9,100,52,21,29.67,29.31,31,9,31,0.00
2013-2-18,58.5,50.2,30.0,48.1,34.1,24.0,87,56,33,29.76,29.23,26,10,26,0.00
2013-2-19,56.3,40.4,23.5,36.2,25.9,20.8,100,61,33,29.91,29.73,16,6,16,0.00
2013-2-20,43.7,37.7,34.5,40.1,35.9,24.4,100,95,46,29.73,29.40,24,13,24,0.51
2013-2-21,41.0,33.6,23.9,40.7,31.8,17.1,100,93,72,29.61,29.28,24,11,24,0.47
2013-2-22,38.8,28.3,19.6,24.4,19.5,14.6,90,70,51,29.76,29.61,14,5,14,0.00
2013-2-23,48.4,33.1,21.0,33.4,26.8,20.8,100,80,48,29.70,29.46,13,4,13,0.00
2013-2-24,63.7,47.1,32.0,43.7,35.7,29.0,100,68,40,29.46,29.23,28,11,28,0.16
2013-2-25,41.7,36.7,33.3,41.7,36.7,33.3,100,100,100,29.34,29.14,31,17,31,1.18
2013-2-26,45.5,36.0,30.2,34.2,30.6,26.4,100,82,57,29.55,29.34,25,9,25,0.00
2013-2-27,45.9,35.7,26.4,31.1,27.1,23.2,100,73,45,29.85,29.52,27,9,27,0.00
2013-2-28,51.6,36.3,25.0,31.6,27.5,24.3,100,75,40,29.88,29.82,20,6,20,0.00
2013-3-1,46.9,33.3,22.5,33.4,28.1,22.5,100,84,48,29.93,29.82,17,5,17,0.00
2013-3-2,58.3,38.7,21.9,35.3,30.0,21.9,100,75,40,29.99,29.76,15,4,15,0.00
2013-3-3,75.6,54.0,33.3,38.4,31.3,25.1,82,49,20,29.76,29.17,29,8,29,0.00
2013-3-4,68.2,55.6,42.3,41.8,35.9,26.5,80,50,28,29.67,29.11,34,11,34,0.00
2013-3-5,52.2,40.6,25.7,33.2,21.9,15.5,81,49,32,30.02,29.67,31,8,31,0.00
2013-3-6,53.4,37.7,18.5,33.8,23.8,17.3,100,62,39,30.02,29.73,14,4,14,0.00
2013-3-7,70.9,54.1,37.4,33.5,26.5,19.4,50,36,21,29.73,29.58,26,11,26,0.00
2013-3-8,62.4,57.2,52.2,59.7,50.3,33.4,100,79,42,29.67,29.46,24,11,24,0.00
2013-3-9,70.0,60.6,53.8,64.9,49.5,30.9,100,73,28,29.49,29.23,27,10,27,0.08
2013-3-10,54.3,40.9,31.6,37.5,29.0,24.3,86,63,44,29.70,29.31,30,12,30,0.00
2013-3-11,60.8,40.8,22.8,33.7,25.3,17.0,84,57,33,29.70,29.55,14,6,14,0.00
2013-3-12,60.6,47.2,35.6,36.9,30.8,24.3,81,54,40,29.93,29.58,20,7,20,0.00
2013-3-13,64.8,46.3,27.0,40.4,32.8,27.0,100,65,34,30.05,29.88,19,5,19,0.00
2013-3-14,78.3,58.0,40.6,43.8,38.0,32.8,76,51,22,29.88,29.70,17,6,17,0.00
2013-3-15,82.9,63.7,47.3,46.0,40.4,36.0,76,46,21,29.73,29.37,22,6,22,0.00
2013-3-16,72.1,61.7,46.6,50.4,43.1,35.1,81,51,34,29.43,29.31,27,11,27,0.00
2013-3-17,51.3,43.8,39.6,40.8,35.5,31.3,100,73,58,29.46,29.26,25,9,25,0.00
2013-3-18,62.1,48.2,37.6,43.7,34.4,23.6,100,65,28,29.61,29.23,28,10,28,0.00
2013-3-19,61.5,47.7,31.5,40.5,32.6,22.8,80,57,38,29.82,29.58,22,5,22,0.00
2013-3-20,60.8,47.4,30.0,37.8,30.7,25.7,96,55,33,29.96,29.58,16,6,16,0.00
2013-3-21,72.7,54.1,44.8,43.1,34.1,26.2,70,48,34,29.58,29.08,27,12,27,0.00
2013-3-22,48.0,41.6,37.6,38.8,36.3,33.6,100,82,62,29.52,29.23,26,12,26,0.00
2013-3-23,47.3,41.8,35.4,44.5,40.1,35.4,100,94,76,29.55,29.31,18,8,18,0.00
2013-3-24,46.2,35.8,25.7,35.4,22.2,12.2,100,60,33,29.82,29.52,29,11,29,0.00
2013-3-25,47.5,34.8,23.5,21.9,17.1,11.8,81,51,28,29.99,29.82,22,6,22,0.00
2013-3-26,57.9,37.1,14.2,26.3,18.5,9.8,92,52,26,30.05,29.79,20,5,20,0.00
2013-3-27,73.6,55.1,41.5,41.2,30.7,21.6,57,40,27,29.79,29.58,30,12,30,0.00
2013-3-28,75.4,59.5,45.7,51.7,45.3,37.0,98,62,36,29.70,29.58,22,8,22,0.00
2013-3-29,76.6,62.5,52.5,62.2,54.8,51.1,100,79,46,29.67,29.58,19,8,20,0.00
2013-3-30,83.8,65.7,47.8,62.8,53.7,45.9,100,72,28,29.61,29.46,13,3,13,0.00
2013-3-31,69.8,59.8,49.1,61.3,48.0,38.5,100,69,36,29.67,29.49,37,8,37,0.28
2013-4-1,73.6,53.2,38.7,55.0,43.4,38.7,100,74,36,29.73,29.61,26,8,26,0.00
2013-4-2,42.4,38.8,36.9,40.6,38.4,35.2,100,98,86,29.76,29.67,24,12,24,0.75
2013-4-3,39.2,37.9,36.9,39.2,37.9,36.9,100,100,100,29.82,29.70,17,8,17,0.67
2013-4-4,46.6,40.5,34.9,40.6,37.6,34.3,100,90,72,29.85,29.76,12,4,12,0.04
2013-4-5,65.5,47.9,30.4,47.5,39.7,30.4,100,77,50,29.82,29.49,20,6,20,0.00
2013-4-6,74.3,62.0,52.0,50.6,46.2,43.6,93,59,34,29.49,29.40,21,6,21,0.00
2013-4-7,77.0,63.1,50.5,63.8,57.4,49.2,100,84,50,29.46,29.26,24,9,24,0.00
2013-4-8,81.5,70.0,61.9,65.9,62.0,57.6,100,79,46,29.26,29.14,30,13,30,0.00
2013-4-9,78.8,60.1,33.4,65.4,52.7,31.6,100,78,40,29.61,29.17,31,13,31,0.47
2013-4-10,44.1,34.6,29.3,33.8,30.5,25.2,100,86,57,29.70,29.43,24,3,24,0.63
2013-4-11,58.6,41.6,27.9,35.3,29.6,23.1,100,66,39,29.61,29.37,16,4,16,0.00
2013-4-12,64.9,49.7,37.4,42.0,37.5,32.2,100,66,39,29.64,29.43,18,6,18,0.00
2013-4-13,73.2,59.4,46.2,47.8,41.2,36.0,75,53,33,29.58,29.28,26,11,26,0.00
2013-4-14,84.6,68.8,58.8,57.5,48.4,42.1,74,50,28,29.31,29.08,29,12,29,0.00
2013-4-15,76.5,63.8,52.5,49.7,39.3,31.4,63,41,33,29.40,29.20,32,13,34,0.00
2013-4-16,52.7,50.4,47.3,50.9,44.7,36.4,100,82,56,29.58,29.37,20,10,20,0.00
2013-4-17,76.3,56.0,46.0,71.6,55.3,46.0,100,98,58,29.49,29.17,28,9,28,0.08
2013-4-18,52.0,42.4,32.2,46.0,31.5,23.6,100,68,40,29.76,29.28,31,12,31,0.04
2013-4-19,67.1,47.2,27.5,33.4,27.7,23.9,90,52,22,29.85,29.67,22,6,22,0.00
2013-4-20,69.8,57.7,46.4,38.6,30.5,26.2,51,36,26,29.70,29.52,31,12,31,0.00
2013-4-21,68.9,58.8,48.2,49.1,41.6,29.7,76,54,38,29.73,29.61,24,10,24,0.00
2013-4-22,77.9,64.2,50.5,56.7,51.3,45.1,92,65,42,29.67,29.31,32,12,32,0.00
2013-4-23,67.5,39.9,32.9,55.5,33.9,23.3,100,80,63,29.88,29.43,31,13,31,0.00
2013-4-24,62.4,43.9,24.6,33.7,29.1,24.6,100,62,28,29.93,29.82,15,4,15,0.00
2013-4-25,69.4,52.1,28.9,47.4,32.8,26.4,100,56,22,29.93,29.70,20,5,20,0.00
2013-4-26,73.0,62.1,55.9,61.4,50.0,36.3,100,66,42,29.73,29.49,38,10,38,0.55
2013-4-27,72.9,60.2,52.3,56.8,52.7,47.6,100,80,42,29.76,29.61,20,7,20,0.00
2013-4-28,84.2,66.1,49.8,61.4,49.7,38.1,100,65,20,29.64,29.40,20,6,20,0.00
2013-4-29,88.7,73.8,58.5,64.0,50.6,38.1,100,53,20,29.46,29.28,28,10,28,0.00
2013-4-30,85.6,73.3,59.9,61.1,54.7,47.8,100,56,28,29.37,29.28,28,12,28,0.00
2013-5-1,82.0,64.9,43.2,66.4,55.8,38.2,100,75,45,29.79,29.31,26,12,26,0.00
2013-5-2,55.6,43.4,35.8,40.1,33.1,24.3,100,70,36,30.05,29.79,39,16,39,0.00
2013-5-3,66.2,48.1,30.6,33.9,29.8,25.1,96,56,22,30.02,29.61,23,6,23,0.00
2013-5-4,67.5,50.7,32.7,41.5,30.9,24.0,96,54,22,29.70,29.55,28,8,28,0.00
2013-5-5,68.4,55.2,46.9,46.1,41.6,37.6,88,62,39,29.82,29.67,19,6,19,0.00
2013-5-6,76.5,59.0,39.4,58.1,45.5,39.4,100,68,32,29.76,29.61,12,2,12,0.00
2013-5-7,82.8,68.1,50.7,56.1,48.4,42.0,100,55,28,29.67,29.49,20,7,20,0.00
2013-5-8,87.4,72.5,58.3,65.8,52.4,46.5,100,52,30,29.55,29.34,30,10,30,0.00
2013-5-9,78.3,67.1,59.9,65.5,61.6,57.0,100,85,52,29.58,29.43,17,6,17,0.04
2013-5-10,72.7,63.6,52.2,62.1,53.6,44.1,100,74,38,29.73,29.55,19,7,19,0.00
2013-5-11,83.1,63.5,47.1,58.3,46.1,37.1,100,61,21,29.88,29.73,24,7,24,0.00
2013-5-12,79.7,62.1,40.5,48.5,38.8,31.4,100,52,18,29.91,29.67,20,6,20,0.00
2013-5-13,92.8,75.3,55.9,46.2,40.3,32.5,66,32,14,29.73,29.61,26,8,26,0.00
2013-5-14,91.0,78.6,64.8,49.5,41.9,29.3,42,28,18,29.67,29.49,25,10,25,0.00
2013-5-15,81.7,69.8,61.0,66.0,56.7,43.9,100,66,34,29.55,29.37,17,6,17,0.00
2013-5-16,77.2,66.8,59.2,65.7,59.8,55.0,100,81,46,29.46,29.40,17,5,17,0.00
2013-5-17,81.5,70.0,61.3,74.3,68.0,61.3,100,94,63,29.49,29.40,14,7,14,0.00
2013-5-18,98.2,77.4,64.2,76.9,66.5,45.0,100,76,22,29.46,29.26,33,10,33,0.91
2013-5-19,95.7,79.3,64.4,70.0,55.8,34.7,100,56,14,29.31,29.14,26,9,26,0.00
2013-5-20,93.2,76.1,60.4,71.7,58.2,46.0,100,61,21,29.40,29.26,22,4,22,0.00
2013-5-21,76.1,65.2,55.6,66.7,51.5,43.4,100,65,33,29.64,29.37,29,6,29,0.04
2013-5-22,86.2,69.0,51.6,62.3,51.9,46.3,100,62,27,29.55,29.43,17,4,17,0.00
2013-5-23,85.5,70.7,61.9,65.3,58.5,49.9,98,69,30,29.70,29.49,23,10,23,0.00
2013-5-24,87.1,72.4,61.2,71.8,64.3,60.1,100,79,45,29.76,29.64,19,9,19,0.00
2013-5-25,83.3,72.1,62.2,70.1,61.3,54.4,100,71,46,29.76,29.58,25,9,25,0.00
2013-5-26,89.4,77.3,68.5,70.7,65.8,58.0,100,72,36,29.64,29.46,27,12,27,0.00
2013-5-27,92.3,79.8,72.0,69.7,63.3,55.8,87,60,32,29.49,29.28,31,14,31,0.00
2013-5-28,81.7,77.1,74.1,69.9,63.2,57.8,84,63,46,29.37,29.28,28,12,28,0.00
2013-5-29,85.5,73.2,62.8,69.8,64.5,55.2,100,76,45,29.37,29.14,37,13,37,0.94
2013-5-30,96.4,79.2,70.0,71.7,63.6,37.6,100,66,14,29.28,29.20,31,13,31,0.00
2013-5-31,97.9,82.5,69.6,71.0,63.5,55.6,92,56,26,29.34,29.11,26,13,28,0.00
2013-6-1,85.6,73.9,62.4,66.5,50.1,38.0,94,49,20,29.67,29.28,28,9,28,0.00
2013-6-2,80.8,67.4,54.5,56.8,48.2,41.5,100,55,28,29.79,29.58,18,5,18,0.00
2013-6-3,87.6,71.4,56.3,59.0,52.6,48.6,99,57,28,29.64,29.40,22,9,22,0.00
2013-6-4,90.9,76.8,63.0,68.4,62.2,52.5,100,64,36,29.58,29.37,31,11,31,0.00
2013-6-5,86.9,74.9,64.8,72.7,63.0,56.3,100,70,39,29.64,29.40,29,10,29,0.71
2013-6-6,80.4,70.0,60.4,65.4,55.0,44.5,96,63,32,29.61,29.55,21,10,21,0.00
2013-6-7,84.2,69.8,54.3,66.6,52.1,44.7,100,61,28,29.64,29.52,13,4,13,0.00
2013-6-8,88.5,74.0,62.4,65.7,52.1,46.5,100,50,27,29.58,29.34,28,10,28,0.20
2013-6-9,93.2,75.8,59.5,66.4,56.0,41.2,100,60,16,29.58,29.40,30,4,30,0.08
2013-6-10,99.1,83.9,68.0,66.9,54.5,41.2,90,43,15,29.55,29.43,24,8,24,0.00
2013-6-11,96.6,85.2,70.0,66.0,52.5,43.7,62,34,21,29.58,29.46,28,9,28,0.00
2013-6-12,98.8,86.3,75.7,63.8,58.0,52.6,62,41,22,29.58,29.49,26,10,26,0.00
2013-6-13,100.0,85.2,67.1,73.1,60.1,50.0,100,49,20,29.64,29.49,16,5,16,0.00
2013-6-14,97.0,83.9,70.0,73.8,59.1,46.5,98,49,21,29.61,29.52,21,5,21,0.00
2013-6-15,89.6,79.8,71.4,64.2,59.2,53.2,78,51,33,29.64,29.49,22,6,22,0.04
2013-6-16,98.4,80.7,70.5,76.1,64.7,50.8,100,67,24,29.64,29.46,26,6,26,0.00
2013-6-17,87.6,76.6,65.7,71.1,63.4,55.7,100,68,34,29.64,29.40,27,7,27,0.67
2013-6-18,88.2,76.7,66.6,71.6,61.3,50.7,100,65,28,29.67,29.55,14,4,14,0.00
2013-6-19,85.6,74.6,65.5,74.5,67.0,58.4,100,80,42,29.67,29.49,19,6,19,0.00
2013-6-20,96.8,82.9,71.4,73.6,63.6,53.9,100,59,26,29.58,29.46,31,12,31,0.00
2013-6-21,96.1,85.5,76.5,62.8,58.7,51.8,54,42,26,29.61,29.52,26,12,26,0.00
2013-6-22,95.9,84.9,71.6,60.2,54.7,47.5,66,38,21,29.58,29.43,29,12,29,0.00
2013-6-23,97.0,85.6,74.5,60.0,54.2,42.6,58,36,16,29.49,29.43,33,13,33,0.00
2013-6-24,95.9,84.9,77.2,60.8,55.5,50.5,52,38,24,29.58,29.43,26,13,28,0.00
2013-6-25,99.0,87.3,77.7,63.0,57.8,51.0,54,38,24,29.49,29.34,28,13,28,0.00
2013-6-26,100.6,89.3,75.7,67.5,56.8,50.4,64,35,24,29.52,29.37,22,8,22,0.00
2013-6-27,106.9,89.7,72.9,72.3,58.1,43.1,93,44,14,29.70,29.43,33,7,33,0.00
2013-6-28,100.8,86.0,68.9,61.1,52.8,41.2,72,37,15,29.67,29.49,27,6,27,0.00
2013-6-29,96.8,82.3,69.3,63.9,52.3,41.2,80,40,16,29.64,29.46,17,4,17,0.00
2013-6-30,90.3,78.9,67.5,55.8,48.0,38.2,63,36,20,29.64,29.52,24,8,24,0.00
2013-7-1,86.5,72.5,58.6,52.5,45.5,33.5,80,42,20,29.76,29.64,23,7,23,0.00
2013-7-2,89.4,73.1,52.9,53.6,42.0,32.8,87,39,15,29.79,29.64,20,3,20,0.00
2013-7-3,92.7,73.5,55.0,61.9,44.9,34.0,96,45,14,29.73,29.55,17,4,17,0.00
2013-7-4,95.2,77.3,62.6,51.3,45.9,35.1,58,36,14,29.64,29.49,22,6,22,0.00
2013-7-5,98.8,82.5,68.2,57.0,49.3,37.5,64,35,14,29.61,29.43,24,9,24,0.00
2013-7-6,100.0,85.0,69.6,55.5,48.4,41.2,56,31,15,29.55,29.43,22,9,24,0.00
2013-7-7,99.3,85.7,70.9,57.0,51.8,42.5,58,34,15,29.61,29.52,20,8,20,0.00
2013-7-8,100.9,86.0,70.3,62.7,55.6,48.5,72,40,18,29.67,29.55,20,7,20,0.00
2013-7-9,103.3,90.5,77.0,60.0,52.2,42.5,51,30,14,29.67,29.55,23,8,23,0.00
2013-7-10,104.4,89.7,73.4,56.0,50.3,43.0,52,29,14,29.64,29.52,23,6,23,0.00
2013-7-11,103.5,87.9,75.6,64.9,55.2,48.7,57,35,18,29.61,29.49,30,6,30,0.00
2013-7-12,103.1,87.7,72.1,72.1,56.9,43.1,96,43,14,29.58,29.49,18,7,18,0.00
2013-7-13,105.1,89.2,74.5,64.4,54.4,43.1,69,36,14,29.61,29.46,17,7,17,0.00
2013-7-14,85.1,71.4,65.5,68.4,60.9,46.9,100,75,34,29.70,29.52,26,7,26,0.24
2013-7-15,77.2,67.9,63.3,70.1,64.9,55.8,100,92,50,29.76,29.67,20,7,20,0.00
2013-7-16,82.8,73.0,67.8,75.9,67.8,60.3,100,86,48,29.88,29.73,15,7,15,0.08
2013-7-17,88.9,75.4,69.1,74.8,69.2,60.1,100,84,42,29.91,29.82,17,4,17,0.04
2013-7-18,92.1,79.7,68.7,78.3,65.1,53.8,100,67,28,29.85,29.64,17,4,17,0.00
2013-7-19,95.0,82.3,68.4,74.5,61.3,51.8,100,57,26,29.70,29.52,20,4,20,0.00
2013-7-20,97.9,84.3,70.5,76.5,62.1,52.0,100,55,24,29.58,29.43,20,6,20,0.00
2013-7-21,100.4,87.2,72.1,72.0,59.3,48.8,94,45,18,29.52,29.40,23,6,23,0.00
2013-7-22,99.1,88.1,75.4,66.8,59.9,54.2,72,41,24,29.52,29.43,25,8,25,0.00
2013-7-23,100.4,89.6,76.5,67.2,60.6,54.2,72,41,24,29.52,29.40,25,6,25,0.00
2013-7-24,97.9,83.9,68.5,69.9,62.3,53.5,96,53,26,29.64,29.46,28,8,28,0.00
2013-7-25,83.1,77.4,71.8,76.3,69.2,60.8,100,78,51,29.73,29.58,17,5,17,0.00
2013-7-26,86.2,76.0,70.0,75.4,68.8,59.8,100,82,44,29.70,29.52,24,10,24,4.06
2013-7-27,89.4,77.4,66.6,77.2,64.6,55.7,100,70,34,29.70,29.55,15,4,15,0.31
2013-7-28,88.9,78.5,68.4,72.0,61.8,49.9,100,63,28,29.61,29.49,23,8,23,0.00
2013-7-29,92.3,81.4,71.4,72.9,68.1,58.9,100,67,34,29.58,29.43,27,10,27,0.00
2013-7-30,94.6,82.7,71.2,74.9,65.5,58.4,92,59,33,29.67,29.49,23,6,23,0.00
2013-7-31,93.9,81.5,73.6,77.0,68.9,56.7,100,71,32,29.73,29.61,18,7,18,0.00
2013-8-1,94.5,82.2,70.2,76.3,65.9,54.6,100,64,27,29.73,29.55,16,4,16,0.00
2013-8-2,104.0,89.2,75.4,75.0,59.9,43.1,98,47,14,29.58,29.40,22,8,22,0.00
2013-8-3,102.2,90.2,79.5,62.3,54.4,49.3,51,31,18,29.64,29.46,20,9,20,0.00
2013-8-4,102.0,86.9,73.8,64.4,58.1,49.3,69,42,18,29.67,29.52,23,8,23,0.00
2013-8-5,103.8,91.5,82.0,61.1,54.5,43.1,45,31,14,29.58,29.40,20,8,24,0.00
2013-8-6,104.7,91.0,77.4,58.5,51.7,43.0,51,29,14,29.46,29.34,25,8,25,0.00
2013-8-7,95.7,84.3,72.1,70.2,60.5,51.1,72,47,28,29.52,29.40,17,6,17,0.00
2013-8-8,94.1,78.4,68.9,73.8,68.4,57.2,100,76,30,29.55,29.43,36,6,36,0.71
2013-8-9,89.4,77.0,68.5,73.6,67.5,59.2,100,77,38,29.70,29.49,16,5,16,0.00
2013-8-10,85.8,75.2,65.8,72.3,64.3,57.4,100,73,39,29.79,29.67,15,6,15,0.00
2013-8-11,96.4,79.9,66.0,77.0,64.9,54.5,100,68,26,29.73,29.61,12,3,12,0.00
2013-8-12,95.7,79.6,70.7,76.7,68.1,59.2,100,72,32,29.73,29.55,19,5,27,0.00
2013-8-13,85.3,76.3,70.9,75.8,70.1,62.4,100,83,48,29.70,29.58,17,5,17,0.00
2013-8-14,86.5,76.0,67.6,72.9,64.5,55.5,100,72,36,29.76,29.61,14,6,14,0.00
2013-8-15,88.9,74.2,66.0,70.6,64.9,60.0,100,76,42,29.70,29.58,15,5,15,0.00
2013-8-16,87.1,74.4,64.2,69.6,62.9,57.7,100,72,39,29.73,29.61,29,5,29,0.00
2013-8-17,84.9,73.6,63.7,68.6,61.3,53.4,100,70,36,29.76,29.64,13,4,13,0.20
2013-8-18,86.9,75.5,66.6,66.0,60.2,52.3,98,64,32,29.73,29.61,15,6,15,0.00
2013-8-19,91.2,77.4,64.4,67.8,59.2,50.2,100,61,27,29.70,29.58,20,7,20,0.00
2013-8-20,94.3,79.6,65.8,64.6,57.5,49.6,94,53,26,29.67,29.58,20,6,20,0.00
2013-8-21,94.3,79.3,64.8,60.1,54.7,46.0,80,48,21,29.70,29.61,17,5,17,0.00
2013-8-22,96.3,82.2,66.6,67.3,58.4,51.7,92,49,24,29.70,29.55,19,4,19,0.00
2013-8-23,98.2,83.5,70.0,70.8,61.0,48.5,100,54,20,29.67,29.55,18,6,18,0.00
2013-8-24,98.4,83.1,70.3,68.8,61.0,52.6,90,53,24,29.70,29.61,15,5,15,0.00
2013-8-25,97.0,83.0,70.9,69.7,60.9,51.5,93,54,24,29.79,29.70,15,6,15,0.00
2013-8-26,93.9,81.7,69.1,64.5,58.0,49.8,80,48,26,29.82,29.70,18,5,18,0.00
2013-8-27,91.2,78.3,66.0,66.0,59.2,52.0,86,55,27,29.73,29.64,17,5,17,0.00
2013-8-28,96.8,82.3,69.4,72.3,60.6,49.6,100,56,24,29.70,29.61,22,6,22,0.00
2013-8-29,99.0,84.4,67.6,64.9,53.0,42.5,82,39,15,29.70,29.58,22,4,22,0.00
2013-8-30,103.1,85.8,66.9,67.3,52.5,40.5,90,40,14,29.64,29.49,20,4,20,0.00
2013-8-31,106.7,87.2,67.3,62.0,50.4,35.5,76,35,10,29.52,29.40,15,3,15,0.00
2013-9-1,97.3,82.1,70.5,63.6,56.3,46.3,72,43,24,29.58,29.43,22,6,22,0.00
2013-9-2,93.7,79.8,68.2,72.9,56.2,39.7,100,52,18,29.70,29.55,16,5,16,0.00
2013-9-3,94.3,76.1,58.5,63.8,50.9,38.2,100,50,16,29.73,29.58,13,3,13,0.00
2013-9-4,97.3,77.7,57.0,63.5,52.7,41.2,100,51,16,29.73,29.64,15,4,15,0.00
2013-9-5,99.3,82.3,66.6,67.0,55.7,43.0,93,48,15,29.76,29.67,15,5,15,0.00
2013-9-6,100.2,83.7,68.5,59.5,54.1,43.0,70,41,15,29.73,29.58,13,5,13,0.00
2013-9-7,101.8,84.7,67.5,61.6,52.7,42.6,76,39,15,29.64,29.52,16,4,17,0.00
2013-9-8,98.4,83.0,66.6,66.3,52.2,38.2,90,42,16,29.61,29.49,19,4,19,0.00
2013-9-9,95.5,82.2,68.4,59.9,50.6,40.5,68,37,16,29.61,29.52,26,6,26,0.00
2013-9-10,93.6,82.0,70.3,61.6,54.5,47.9,72,41,26,29.73,29.58,20,8,20,0.00
2013-9-11,94.8,80.8,67.8,59.4,53.2,46.0,70,42,21,29.76,29.64,20,5,20,0.00
2013-9-12,97.9,81.3,65.8,64.6,55.2,43.9,86,46,16,29.73,29.61,20,4,20,0.00
2013-9-13,87.3,77.4,69.6,71.2,61.9,55.4,100,62,34,29.67,29.58,16,7,20,0.00
2013-9-14,86.7,76.0,67.1,61.7,53.6,48.1,68,46,33,29.64,29.52,14,6,14,0.00
2013-9-15,95.5,82.7,71.1,61.0,53.0,46.9,63,38,21,29.67,29.55,18,6,18,0.00
2013-9-16,91.9,76.5,68.2,74.0,64.8,51.3,100,73,27,29.76,29.64,20,5,20,0.12
2013-9-17,88.7,74.8,69.1,75.3,67.9,58.8,100,82,38,29.76,29.58,14,4,14,0.00
2013-9-18,92.8,79.7,68.9,72.9,61.1,47.0,100,61,26,29.61,29.46,26,7,26,0.00
2013-9-19,84.6,76.4,70.0,72.2,61.6,54.2,100,62,42,29.64,29.52,22,7,22,0.00
2013-9-20,71.6,65.8,54.3,70.7,59.1,48.6,100,81,50,29.67,29.52,24,8,24,0.00
2013-9-21,84.7,65.8,49.5,63.7,47.1,36.2,100,61,20,29.70,29.55,10,3,15,0.00
2013-9-22,84.6,66.9,48.9,59.3,44.1,34.3,100,52,20,29.58,29.43,13,4,14,0.00
2013-9-23,86.7,70.3,56.1,51.6,45.3,38.2,81,45,20,29.49,29.34,26,8,26,0.00
2013-9-24,89.6,70.8,54.7,54.4,42.9,29.3,90,44,15,29.64,29.49,18,5,18,0.00
2013-9-25,92.3,71.0,48.7,56.3,43.6,35.6,99,46,15,29.55,29.37,18,5,18,0.00
2013-9-26,95.7,80.7,64.8,54.1,46.5,40.5,58,32,16,29.46,29.37,29,10,29,0.00
2013-9-27,91.0,78.6,66.0,64.5,54.7,41.5,80,45,28,29.52,29.40,27,11,27,0.00
2013-9-28,78.3,67.1,51.6,69.6,54.4,39.6,100,68,32,29.76,29.43,24,9,24,0.00
2013-9-29,79.3,62.0,46.2,61.0,46.0,35.7,100,65,22,29.76,29.58,10,2,10,0.00
2013-9-30,86.4,66.8,49.5,55.0,47.9,42.2,100,59,24,29.58,29.40,20,6,20,0.00
2013-10-1,90.5,73.5,59.4,57.9,53.0,48.3,87,53,26,29.55,29.46,26,8,26,0.00
2013-10-2,88.3,75.0,65.3,72.7,62.1,53.7,100,69,32,29.58,29.46,19,9,23,0.00
2013-10-3,90.5,79.6,70.7,71.8,62.4,50.8,100,61,28,29.49,29.34,30,14,30,0.00
2013-10-4,88.7,78.2,59.7,68.2,60.3,50.5,100,57,32,29.58,29.34,34,12,34,0.00
2013-10-5,68.0,57.3,48.0,54.2,37.8,30.8,96,51,26,29.79,29.58,23,7,23,0.00
2013-10-6,74.5,57.9,44.8,46.8,34.5,27.4,98,47,20,29.82,29.70,25,7,25,0.00
2013-10-7,80.1,60.3,43.3,52.7,40.6,31.8,100,58,18,29.85,29.73,9,2,9,0.00
2013-10-8,81.9,63.9,48.7,45.0,39.1,32.9,74,44,21,29.73,29.58,18,7,18,0.00
2013-10-9,83.5,67.5,54.9,51.1,44.9,37.2,86,48,21,29.67,29.55,25,9,25,0.00
2013-10-10,83.8,70.3,58.8,55.8,51.5,47.2,80,54,32,29.64,29.43,27,9,27,0.00
2013-10-11,86.9,72.3,59.9,63.9,47.4,30.0,96,49,16,29.49,29.40,23,8,23,0.00
2013-10-12,76.3,64.2,54.7,48.0,42.2,36.8,78,46,32,29.79,29.49,24,9,24,0.00
2013-10-13,74.5,65.5,54.5,68.9,55.5,46.3,100,71,50,29.91,29.76,17,6,17,0.00
2013-10-14,73.8,68.9,63.9,72.4,68.3,57.3,100,98,69,29.79,29.49,32,7,32,0.00
2013-10-15,68.4,56.7,49.3,68.0,44.9,35.4,100,67,39,29.79,29.52,23,8,23,0.00
2013-10-16,53.6,47.5,37.9,44.5,38.7,34.3,100,73,50,29.85,29.73,14,4,14,0.00
2013-10-17,72.7,52.1,34.7,46.8,38.9,34.1,100,68,28,29.73,29.61,10,2,10,0.00
2013-10-18,56.1,47.2,34.3,52.1,43.6,34.3,100,89,58,29.85,29.61,26,8,26,0.00
2013-10-19,66.7,47.4,31.8,46.5,35.1,31.7,100,69,30,29.85,29.67,17,4,17,0.00
2013-10-20,73.2,55.0,36.0,49.4,40.6,30.7,100,64,34,29.67,29.43,23,6,23,0.00
2013-10-21,64.2,54.6,39.0,52.8,39.1,31.5,100,59,34,29.79,29.55,32,9,32,0.00
2013-10-22,78.1,55.2,36.7,43.1,38.3,31.1,100,62,20,29.79,29.67,16,4,16,0.00
2013-10-23,83.8,59.0,38.1,52.0,39.7,29.2,100,60,16,29.79,29.61,19,4,19,0.00
2013-10-24,63.9,53.2,43.7,47.7,38.7,30.7,100,62,36,29.99,29.73,24,7,24,0.00
2013-10-25,66.7,51.9,38.5,42.9,36.4,29.4,78,57,38,30.05,29.85,15,6,15,0.00
2013-10-26,72.5,58.7,51.8,66.2,52.8,42.5,100,82,51,29.85,29.70,20,5,20,0.00
2013-10-27,72.3,55.5,36.3,53.8,37.6,29.3,100,56,21,29.82,29.61,11,3,11,0.00
2013-10-28,68.5,59.9,51.4,67.6,59.7,51.4,100,100,90,29.70,29.61,28,7,28,0.00
2013-10-29,78.1,71.5,67.5,71.6,66.6,62.2,100,86,58,29.64,29.55,26,11,26,0.00
2013-10-30,78.8,72.2,69.3,71.2,67.7,61.6,100,87,57,29.61,29.37,25,11,25,0.00
2013-10-31,69.3,59.8,43.3,69.3,44.9,33.0,100,62,30,29.49,29.28,28,8,28,0.00
2013-11-1,71.4,53.5,40.1,49.4,38.8,29.1,100,65,26,29.61,29.46,21,5,21,0.00
2013-11-2,67.5,50.9,35.6,37.3,30.9,24.8,90,50,22,29.61,29.61,13,4,13,0.00
2013-11-3,64.9,53.3,41.5,40.3,33.8,30.0,66,49,34,29.61,29.61,26,11,26,0.00
2013-11-4,70.7,58.9,48.4,58.8,48.2,39.8,100,70,40,29.61,29.61,23,9,23,0.00
2013-11-5,71.1,61.1,46.9,66.4,59.7,43.7,100,96,69,29.61,29.61,28,10,28,0.00
2013-11-6,56.7,44.6,33.1,44.8,33.7,26.4,100,69,38,29.61,29.61,16,5,16,0.00
2013-11-7,66.7,46.4,29.7,41.3,33.4,29.3,100,67,30,29.61,29.61,17,3,17,0.00
2013-11-8,66.7,53.4,38.1,37.4,30.0,23.8,74,44,22,29.61,29.61,30,10,30,0.00
2013-11-9,67.6,55.2,42.8,48.0,40.2,32.8,94,59,38,29.61,29.61,17,6,17,0.00
2013-11-10,63.3,54.7,45.3,56.3,52.0,44.4,100,91,68,29.61,29.61,10,3,10,0.00
2013-11-11,67.5,56.2,40.5,59.4,51.9,35.1,100,87,62,29.61,29.61,27,7,27,0.00
2013-11-12,43.5,33.1,16.9,35.1,16.2,8.4,81,52,30,29.61,29.61,28,11,28,0.00
2013-11-13,53.8,32.3,12.0,21.4,13.5,7.8,92,52,22,29.61,29.61,15,4,15,0.00
2013-11-14,58.1,44.8,32.7,37.5,28.1,18.2,76,53,38,29.61,29.61,24,8,24,0.00
2013-11-15,69.1,52.5,32.0,46.5,38.1,30.6,100,61,34,29.61,29.61,26,6,26,0.00
2013-11-16,80.2,69.7,56.3,52.4,47.2,40.8,86,47,27,29.61,29.61,33,14,33,0.00
2013-11-17,75.0,64.1,53.1,52.6,36.3,19.8,78,39,20,29.61,29.61,26,9,26,0.00
2013-11-18,68.4,52.0,36.0,31.4,23.9,13.5,60,35,22,29.61,29.61,14,4,14,0.00
2013-11-19,64.9,55.8,47.5,34.3,30.6,26.8,52,39,27,29.61,29.61,29,10,29,0.00
2013-11-20,64.6,58.5,52.5,52.2,42.4,27.1,76,56,34,29.61,29.61,25,11,25,0.00
2013-11-21,74.7,51.2,30.6,64.4,44.3,20.0,100,78,44,29.61,29.61,28,11,28,0.00
2013-11-22,30.6,28.8,27.1,29.2,21.8,16.2,99,76,62,29.61,29.61,26,8,26,0.00
2013-11-23,38.1,33.3,29.7,22.9,19.9,15.6,75,58,46,29.61,29.61,17,1,17,0.00
2013-11-24,30.9,26.6,22.5,27.0,20.8,11.4,100,81,48,29.61,29.61,18,6,18,0.00
2013-11-25,34.5,31.0,26.6,33.8,29.9,25.2,100,96,82,29.61,29.61,10,4,10,0.00
2013-11-26,48.2,35.0,23.9,33.3,25.4,19.5,100,71,40,29.61,29.61,22,6,22,0.00
2013-11-27,44.2,30.5,18.7,22.6,18.7,14.2,86,63,42,29.61,29.61,10,3,10,0.00
2013-11-28,57.9,40.1,25.7,33.9,24.5,17.8,81,56,33,29.61,29.61,15,3,15,0.00
2013-11-29,58.8,43.5,29.5,33.9,28.3,21.4,82,57,38,29.61,29.61,18,7,22,0.00
2013-11-30,63.5,48.5,36.9,42.0,38.1,32.9,100,69,40,29.61,29.61,14,3,14,0.00
2013-12-1,62.6,44.4,32.0,49.3,38.4,32.0,100,83,44,29.61,29.61,8,1,8,0.00
2013-12-2,66.7,43.9,27.7,48.0,34.3,27.7,100,75,33,29.61,29.61,11,2,11,0.00
2013-12-3,66.6,49.6,36.1,51.1,38.1,31.7,100,69,34,29.61,29.61,12,4,12,0.00
2013-12-4,46.9,39.3,29.5,35.7,26.7,13.6,92,61,45,29.61,29.61,22,8,22,0.00
2013-12-5,29.5,22.2,18.1,17.5,10.0,6.1,93,61,46,29.61,29.61,25,13,25,0.00
2013-12-6,23.4,15.6,1.6,16.3,7.2,-10.1,99,71,51,29.61,29.61,20,8,20,0.00
2013-12-7,21.4,12.8,1.4,9.7,0.6,-10.3,66,57,51,29.61,29.61,15,6,15,0.00
2013-12-8,31.1,22.0,18.1,21.6,16.9,9.2,100,81,63,29.61,29.61,21,6,21,0.00
2013-12-9,24.4,19.0,7.2,22.9,12.2,-0.4,100,75,64,29.61,29.61,14,6,15,0.00
2013-12-10,38.7,20.0,0.7,21.4,9.6,-6.6,86,64,46,29.61,29.61,15,4,15,0.00
2013-12-11,37.9,26.6,13.5,24.5,18.0,9.7,98,71,52,29.61,29.61,23,6,23,0.00
2013-12-12,39.2,26.8,11.3,29.1,18.8,7.4,93,73,51,29.61,29.61,13,3,13,0.00
2013-12-13,53.2,42.8,33.3,39.6,34.5,27.1,100,74,56,29.61,29.61,22,9,23,0.00
2013-12-14,46.6,35.1,26.1,38.1,25.3,16.4,100,70,40,29.61,29.61,22,7,22,0.00
2013-12-15,60.6,39.3,21.9,31.6,25.7,18.0,99,63,28,29.61,29.61,17,3,17,0.00
2013-12-16,69.4,43.1,25.9,35.0,26.9,21.9,94,59,22,29.61,29.61,11,2,11,0.00
2013-12-17,64.6,41.3,24.4,35.4,26.1,20.2,99,61,22,29.91,29.61,18,3,18,0.00
2013-12-18,68.5,48.6,26.4,41.2,30.6,21.0,87,55,26,29.88,29.43,27,8,27,0.00
2013-12-19,68.9,59.5,52.7,49.5,45.3,40.3,78,60,39,29.43,29.23,26,12,26,0.00
2013-12-20,59.2,33.9,27.9,49.5,24.0,13.4,100,67,51,29.61,29.26,24,8,24,0.00
2013-12-21,31.6,30.3,26.8,31.6,30.2,23.7,100,100,88,29.43,29.17,0,0,0,0.00
2013-12-22,33.6,26.8,20.3,26.6,22.5,17.8,94,84,69,29.96,29.43,0,0,0,0.00
2013-12-23,36.5,25.9,19.4,29.7,23.7,18.4,100,92,70,30.14,29.93,0,0,0,0.00
2013-12-24,40.6,31.0,25.7,37.4,29.9,24.5,100,96,76,30.11,29.73,15,2,15,0.00
2013-12-25,48.6,34.7,25.0,36.7,30.2,24.4,100,86,54,30.02,29.79,18,6,18,0.00
2013-12-26,54.9,35.3,20.3,34.2,25.9,20.1,100,74,34,30.02,29.88,16,2,16,0.00
2013-12-27,61.2,38.1,21.9,34.1,27.0,20.6,100,69,33,29.99,29.88,15,2,15,0.00
2013-12-28,58.8,41.3,26.8,43.1,33.1,22.9,100,76,39,29.88,29.49,23,4,23,0.00
2013-12-29,41.7,28.3,18.1,41.5,19.4,6.6,100,70,52,29.91,29.49,31,12,31,0.00
2013-12-30,44.2,25.4,11.1,23.5,13.8,4.3,90,63,42,29.99,29.82,13,2,13,0.00
2013-12-31,55.9,36.7,18.1,33.1,24.1,15.3,96,65,33,29.96,29.67,23,6,23,0.00
2014-1-1,52.7,36.2,21.9,34.8,26.0,13.8,93,68,45,29.93,29.49,26,8,26,0.00
2014-1-2,41.5,26.8,15.1,21.6,15.7,10.3,82,64,44,30.11,29.93,15,4,15,0.00